createdAt,value
2022-11-01T00:04:38.207Z,6.22
2022-11-01T00:09:41.712Z,6.65
2022-11-01T00:14:45.254Z,6.80
2022-11-01T00:19:50.066Z,6.97
2022-11-01T00:24:54.980Z,5.75
2022-11-01T00:29:58.644Z,7.30
2022-11-01T00:35:03.515Z,6.35
2022-11-01T00:40:08.567Z,6.20
2022-11-01T00:45:12.582Z,5.82
2022-11-01T00:50:17.710Z,6.45
2022-11-01T00:55:21.237Z,7.72
2022-11-01T01:00:25.099Z,5.28
2022-11-01T01:05:30.159Z,6.25
2022-11-01T01:10:33.912Z,6.47
2022-11-01T01:15:39.367Z,7.32
2022-11-01T01:20:45.018Z,8.52
2022-11-01T01:25:48.395Z,7.03
2022-11-01T01:30:51.859Z,5.70
2022-11-01T01:35:56.682Z,7.28
2022-11-01T01:41:20.077Z,5.93
2022-11-01T01:46:23.731Z,5.90
2022-11-01T01:51:30.459Z,7.55
2022-11-01T01:56:38.180Z,9.63
2022-11-01T02:01:42.581Z,7.18
2022-11-01T02:06:49.209Z,5.75
2022-11-01T02:11:53.478Z,4.30
2022-11-01T02:17:07.154Z,5.85
2022-11-01T02:22:24.813Z,6.32
2022-11-01T02:27:35.977Z,7.45
2022-11-01T02:32:55.518Z,6.85
2022-11-01T02:38:07.791Z,6.40
2022-11-01T02:43:19.363Z,6.85
2022-11-01T02:48:25.976Z,4.78
2022-11-01T02:53:29.411Z,6.78
2022-11-01T02:58:33.081Z,5.25
2022-11-01T03:03:38.383Z,6.43
2022-11-01T03:08:47.088Z,7.68
2022-11-01T03:14:01.668Z,5.07
2022-11-01T03:19:21.763Z,7.05
2022-11-01T03:24:29.603Z,5.35
2022-11-01T03:29:36.392Z,6.70
2022-11-01T03:34:42.265Z,6.17
2022-11-01T03:39:49.877Z,6.05
2022-11-01T03:50:17.649Z,5.97
2022-11-01T03:55:22.735Z,5.20
2022-11-01T04:00:29.798Z,4.45
2022-11-01T04:05:38.064Z,8.17
2022-11-01T04:10:42.056Z,6.18
2022-11-01T04:16:02.851Z,5.10
2022-11-01T04:21:11.483Z,5.60
2022-11-01T04:26:18.516Z,7.38
2022-11-01T04:31:22.132Z,7.83
2022-11-01T04:36:27.938Z,5.03
2022-11-01T04:41:31.638Z,6.13
2022-11-01T04:46:35.040Z,7.13
2022-11-01T04:51:41.520Z,5.00
2022-11-01T04:56:45.257Z,4.70
2022-11-01T05:01:48.902Z,5.00
2022-11-01T05:06:53.779Z,5.68
2022-11-01T05:11:57.245Z,4.97
2022-11-01T05:17:01.328Z,4.97
2022-11-01T05:22:08.719Z,5.05
2022-11-01T05:27:12.178Z,4.50
2022-11-01T05:32:15.609Z,5.75
2022-11-01T05:37:24.502Z,5.28
2022-11-01T05:42:30.453Z,3.95
2022-11-01T05:47:34.550Z,3.58
2022-11-01T05:52:39.753Z,3.95
2022-11-01T05:57:43.226Z,4.15
2022-11-01T06:02:46.806Z,3.72
2022-11-01T06:07:51.657Z,4.70
2022-11-01T06:12:55.659Z,5.15
2022-11-01T06:18:00.502Z,3.63
2022-11-01T06:23:11.506Z,3.80
2022-11-01T06:28:15.033Z,3.45
2022-11-01T06:33:18.454Z,3.10
2022-11-01T06:38:23.320Z,4.03
2022-11-01T06:43:26.762Z,3.45
2022-11-01T06:48:30.645Z,4.22
2022-11-01T06:53:35.476Z,4.95
2022-11-01T06:58:38.901Z,4.10
2022-11-01T07:03:42.356Z,5.32
2022-11-01T07:08:47.565Z,2.67
2022-11-01T07:13:51.113Z,4.53
2022-11-01T07:18:54.546Z,4.28
2022-11-01T07:23:59.355Z,4.25
2022-11-01T07:29:03.019Z,3.42
2022-11-01T07:34:06.669Z,4.95
2022-11-01T07:39:12.006Z,3.83
2022-11-01T07:44:15.402Z,4.38
2022-11-01T07:49:18.929Z,2.70
2022-11-01T07:54:23.832Z,9.25
2022-11-01T07:59:27.272Z,10.23
2022-11-01T08:04:30.732Z,6.25
2022-11-01T08:09:35.640Z,7.10
2022-11-01T08:14:39.138Z,7.30
2022-11-01T08:19:42.529Z,6.60
2022-11-01T08:24:47.452Z,9.07
2022-11-01T08:29:50.937Z,18.90
2022-11-01T08:34:54.418Z,10.15
2022-11-01T08:39:59.134Z,9.65
2022-11-01T08:45:02.467Z,8.95
2022-11-01T08:50:10.996Z,12.45
2022-11-01T08:55:16.218Z,9.65
2022-11-01T09:00:21.450Z,10.27
2022-11-01T09:05:25.005Z,10.57
2022-11-01T09:10:30.992Z,8.75
2022-11-01T09:15:34.854Z,8.57
2022-11-01T09:20:39.373Z,10.32
2022-11-01T09:25:44.209Z,11.20
2022-11-01T09:30:49.786Z,8.55
2022-11-01T09:35:59.796Z,11.50
2022-11-01T09:41:12.550Z,10.40
2022-11-01T09:51:26.814Z,10.15
2022-11-01T09:56:40.534Z,10.68
2022-11-01T10:01:57.861Z,10.02
2022-11-01T10:07:11.168Z,9.23
2022-11-01T10:12:32.568Z,11.75
2022-11-01T10:17:52.731Z,10.93
2022-11-01T10:22:56.757Z,12.23
2022-11-01T10:28:11.878Z,7.43
2022-11-01T10:33:29.527Z,7.93
2022-11-01T10:44:11.652Z,9.93
2022-11-01T10:49:24.497Z,8.25
2022-11-01T10:54:31.678Z,10.10
2022-11-01T10:59:43.758Z,7.20
2022-11-01T11:04:48.448Z,9.52
2022-11-01T11:09:51.997Z,9.27
2022-11-01T11:15:04.570Z,9.65
2022-11-01T11:20:11.771Z,9.32
2022-11-01T11:25:19.346Z,8.25
2022-11-01T11:30:33.368Z,7.28
2022-11-01T11:35:38.637Z,8.40
2022-11-01T11:40:47.453Z,7.90
2022-11-01T11:46:08.880Z,9.88
2022-11-01T11:51:12.394Z,7.72
2022-11-01T11:56:15.945Z,9.00
2022-11-01T12:01:26.316Z,7.22
2022-11-01T12:06:31.480Z,6.72
2022-11-01T12:11:43.680Z,6.63
2022-11-01T12:16:48.519Z,6.72
2022-11-01T12:21:53.037Z,6.35
2022-11-01T12:27:03.778Z,8.13
2022-11-01T12:32:16.830Z,5.65
2022-11-01T12:37:24.780Z,7.03
2022-11-01T12:42:33.807Z,5.85
2022-11-01T12:47:45.292Z,6.03
2022-11-01T12:52:54.327Z,6.68
2022-11-01T12:57:57.858Z,4.57
2022-11-01T13:03:27.486Z,6.13
2022-11-01T13:08:44.999Z,6.68
2022-11-01T13:13:58.481Z,6.13
2022-11-01T13:19:14.310Z,4.13
2022-11-01T13:24:29.631Z,5.20
2022-11-01T13:29:42.328Z,5.95
2022-11-01T13:35:19.965Z,5.30
2022-11-01T13:40:32.433Z,5.05
2022-11-01T13:46:25.991Z,5.35
2022-11-01T13:51:41.860Z,4.95
2022-11-01T13:56:56.402Z,5.63
2022-11-01T14:02:55.360Z,4.40
2022-11-01T14:08:37.799Z,4.88
2022-11-01T14:13:45.861Z,5.32
2022-11-01T14:19:22.294Z,5.15
2022-11-01T14:24:35.215Z,3.67
2022-11-01T14:29:41.279Z,4.40
2022-11-01T14:34:47.523Z,4.63
2022-11-01T14:40:31.704Z,4.78
2022-11-01T14:45:39.586Z,3.40
2022-11-01T14:50:55.436Z,6.57
2022-11-01T14:56:23.173Z,3.03
2022-11-01T15:01:26.911Z,3.72
2022-11-01T15:06:32.822Z,4.70
2022-11-01T15:11:37.324Z,2.55
2022-11-01T15:16:44.183Z,3.90
2022-11-01T15:21:55.117Z,5.07
2022-11-01T15:27:07.870Z,3.97
2022-11-01T15:32:26.893Z,3.17
2022-11-01T15:37:33.688Z,4.43
2022-11-01T15:42:38.036Z,4.13
2022-11-01T15:47:46.646Z,3.58
2022-11-01T15:52:51.695Z,4.03
2022-11-01T15:58:05.071Z,3.67
2022-11-01T16:03:18.423Z,6.28
2022-11-01T16:08:29.044Z,5.03
2022-11-01T16:13:33.512Z,4.22
2022-11-01T16:18:39.745Z,8.18
2022-11-01T16:23:51.905Z,5.90
2022-11-01T16:28:55.994Z,7.15
2022-11-01T16:34:00.297Z,15.75
2022-11-01T16:39:31.138Z,20.08
2022-11-01T16:44:40.178Z,16.48
2022-11-01T16:50:03.779Z,12.90
2022-11-01T16:55:12.112Z,18.50
2022-11-01T17:00:17.225Z,17.30
2022-11-01T17:05:23.663Z,15.73
2022-11-01T17:10:31.000Z,11.30
2022-11-01T17:15:41.776Z,14.02
2022-11-01T17:20:48.195Z,14.80
2022-11-01T17:25:56.053Z,14.73
2022-11-01T17:31:00.100Z,9.70
2022-11-01T17:36:04.587Z,25.10
2022-11-01T17:41:17.017Z,16.30
2022-11-01T17:46:42.863Z,14.07
2022-11-01T17:51:56.223Z,7.97
2022-11-01T17:57:49.714Z,15.80
2022-11-01T18:03:33.860Z,11.25
2022-11-01T18:09:05.609Z,11.07
2022-11-01T18:21:33.194Z,7.40
2022-11-01T18:26:37.777Z,8.30
2022-11-01T18:31:48.026Z,8.45
2022-11-01T18:42:48.450Z,8.27
2022-11-01T18:47:58.729Z,5.85
2022-11-01T18:53:14.567Z,8.57
2022-11-01T18:58:24.429Z,10.00
2022-11-01T19:03:30.873Z,6.65
2022-11-01T19:08:36.279Z,7.53
2022-11-01T19:13:41.652Z,7.07
2022-11-01T19:18:47.134Z,6.80
2022-11-01T19:23:54.252Z,7.93
2022-11-01T19:28:59.606Z,4.65
2022-11-01T19:34:11.095Z,7.53
2022-11-01T19:39:26.748Z,5.20
2022-11-01T19:44:32.327Z,4.85
2022-11-01T19:49:41.488Z,6.72
2022-11-01T19:54:49.017Z,4.80
2022-11-01T19:59:54.432Z,5.07
2022-11-01T20:05:01.160Z,6.70
2022-11-01T20:10:10.376Z,7.15
2022-11-01T20:15:15.726Z,4.95
2022-11-01T20:20:19.311Z,4.07
2022-11-01T20:25:23.117Z,4.78
2022-11-01T20:30:28.057Z,6.25
2022-11-01T20:35:31.784Z,4.47
2022-11-01T20:40:35.402Z,6.40
2022-11-01T20:45:40.518Z,5.85
2022-11-01T20:50:44.179Z,4.78
2022-11-01T20:55:47.796Z,4.97
2022-11-01T21:00:53.073Z,7.53
2022-11-01T21:05:56.709Z,5.35
2022-11-01T21:11:04.210Z,6.15
2022-11-01T21:16:21.762Z,6.43
2022-11-01T21:21:42.447Z,7.95
2022-11-01T21:26:55.737Z,7.60
2022-11-01T21:32:00.988Z,8.70
2022-11-01T21:37:07.184Z,8.43
2022-11-01T21:42:32.451Z,10.43
2022-11-01T21:47:39.803Z,12.18
2022-11-01T21:52:45.854Z,9.75
2022-11-01T21:57:49.297Z,10.25
2022-11-01T22:02:54.212Z,9.65
2022-11-01T22:07:57.654Z,12.68
2022-11-01T22:13:06.484Z,10.32
2022-11-01T22:18:11.691Z,12.82
2022-11-01T22:23:15.186Z,10.20
2022-11-01T22:28:18.698Z,9.32
2022-11-01T22:33:23.576Z,9.80
2022-11-01T22:38:38.862Z,8.98
2022-11-01T22:43:45.748Z,9.40
2022-11-01T22:48:54.214Z,10.43
2022-11-01T22:54:00.920Z,7.95
2022-11-01T22:59:04.411Z,9.57
2022-11-01T23:04:23.491Z,10.63
2022-11-01T23:09:26.905Z,8.98
2022-11-01T23:14:39.291Z,9.68
2022-11-01T23:19:44.231Z,11.15
2022-11-01T23:24:51.800Z,8.73
2022-11-01T23:29:58.207Z,13.00
2022-11-01T23:35:16.359Z,13.32
2022-11-01T23:40:22.747Z,15.32
2022-11-01T23:45:32.609Z,13.07
2022-11-01T23:50:38.999Z,15.07
2022-11-01T23:55:47.037Z,12.63
